Airfield :
LOGIN :

Register | Disclaimer

   EN    FR    IT 

 










Legend :    VFR   Marginal VFR   IFR   Intensive IFR   Very Intensive IFR
Visi :
Ceiling :
>= 8 km
>= 3000ft
5 to 8 km
1000 to 3000 ft
1500m to 5 km
500 to 1000 ft
800 to 1500m
200 to 500 ft
< 800m
< 200 ft
Symbols :   Thunderstorms  Fog  Heavy snow  Heavy precipitations  Wind > 20 kt
SIGMETs :     Misc.  Thunderstorms  Icing  Turbulence  Mountain Waves  Volcanic Ashes







- Airport Elevation : 288 ft
- IATA code : BZZ


EGVN - RAF Brize Norton

CURRENT METAR :
  • 241550Z 27004KT 9999 FEW030 SCT160 25/15 Q1016 NOSIG RMK BLU BLU

EXPIRED METARs :
  • 241520Z 25003KT 9999 FEW030 BKN180 24/16 Q1016 NOSIG RMK BLU BLU
  • 241450Z 24003KT 9999 FEW030 SCT250 24/16 Q1016 NOSIG RMK BLU BLU
  • 241420Z 24003KT 9999 FEW030 BKN110 23/17 Q1016 NOSIG RMK BLU BLU
  • 241350Z 24003KT 9999 FEW022 BKN120 22/17 Q1016 NOSIG RMK BLU BLU
  • 241320Z 26003KT 9999 SCT020 BKN110 22/17 Q1016 BECMG SCT025 RMK WHT BECMG BLU

TAF TAF EGVN
Valid from the 24 at 15:00 until the 25 at 15:00 UTC


241330Z 2415/2515 VRB03KT 9999 FEW025
TEMPO 2423/2507 3500 RADZ SCT020
PROB40
TEMPO 2502/2507 2000 +RA BKN008
TEMPO 2507/2512 SCT012
TEMPO 2512/2515 SCT020
No reported NOTAMs for that airfield.
1 SIGMET reported for the London FIR (EGTT) :
 
Embedded thunderstorms
EGTT SIGMET 06 VALID 241400/241700 EGRR
EGTT LONDON FIR EMBD TS FCST WI N5429 E00041 - N5357 W00159 - N5500 W00259 - N5500 E00106 - N5429 E00041 TOP FL320 MOV NE 20KT NC=



MET'MAP, your aeronautical weather chart ! - Copyright ORBIFLY December 2007 - Disclaimer

ORBIFLY MET'MAP TEAM :

Programming & Development : Alexandra Zaïnal
Concept & Development : Baudouin d'Aumeries
Co-Development & Prog : Marc-Olivier Méhu
Technical & hardware support : Manuel Goepfert

Contact : metmap@orbifly.com




SOURCES & CREDITS :

   NOAA